sensor_id;sensor_type;location;lat;lon;timestamp;pressure;altitude;pressure_sealevel;temperature;humidity
75747;BME280;70632;52.232;21.038;2023-08-08T20:51:51;99963.31;;;17.98;50.51
75747;BME280;70632;52.232;21.038;2023-08-08T20:54:17;99949.22;;;18.07;50.56
75747;BME280;70632;52.232;21.038;2023-08-08T20:56:44;99955.25;;;17.98;50.11
75747;BME280;70632;52.232;21.038;2023-08-08T20:59:12;99952.69;;;18.09;50.10
75747;BME280;70632;52.232;21.038;2023-08-08T21:01:37;99936.63;;;17.68;51.03
75747;BME280;70632;52.232;21.038;2023-08-08T21:04:03;99949.81;;;17.73;51.04
75747;BME280;70632;52.232;21.038;2023-08-08T21:06:31;99944.19;;;17.76;51.20
75747;BME280;70632;52.232;21.038;2023-08-08T21:08:57;99970.09;;;17.78;51.38
75747;BME280;70632;52.232;21.038;2023-08-08T21:11:22;99947.00;;;17.74;51.11
75747;BME280;70632;52.232;21.038;2023-08-08T21:13:48;99969.34;;;17.76;51.65
75747;BME280;70632;52.232;21.038;2023-08-08T21:16:13;99956.16;;;17.72;51.29
75747;BME280;70632;52.232;21.038;2023-08-08T21:18:40;99947.13;;;17.73;51.58
75747;BME280;70632;52.232;21.038;2023-08-08T21:21:06;99952.69;;;17.70;51.44
75747;BME280;70632;52.232;21.038;2023-08-08T21:23:31;99959.38;;;17.64;51.82
75747;BME280;70632;52.232;21.038;2023-08-08T21:25:57;99955.69;;;17.65;51.82
75747;BME280;70632;52.232;21.038;2023-08-08T21:28:23;99948.78;;;17.61;52.08
75747;BME280;70632;52.232;21.038;2023-08-08T21:30:48;99955.66;;;17.53;52.73
75747;BME280;70632;52.232;21.038;2023-08-08T21:33:14;99955.34;;;17.57;52.36
75747;BME280;70632;52.232;21.038;2023-08-08T21:35:40;99952.47;;;17.60;52.20
75747;BME280;70632;52.232;21.038;2023-08-08T21:38:05;99957.47;;;17.52;52.90
75747;BME280;70632;52.232;21.038;2023-08-08T21:40:36;99940.09;;;17.29;53.27
75747;BME280;70632;52.232;21.038;2023-08-08T21:43:01;99963.69;;;17.40;53.44
75747;BME280;70632;52.232;21.038;2023-08-08T21:45:27;99944.25;;;17.35;53.54
75747;BME280;70632;52.232;21.038;2023-08-08T21:47:53;99942.16;;;17.26;53.26
75747;BME280;70632;52.232;21.038;2023-08-08T21:50:18;99954.88;;;17.24;54.30
75747;BME280;70632;52.232;21.038;2023-08-08T21:52:44;99966.16;;;17.16;54.49
75747;BME280;70632;52.232;21.038;2023-08-08T21:55:10;99958.81;;;17.18;54.81
75747;BME280;70632;52.232;21.038;2023-08-08T21:57:36;99944.69;;;17.15;55.38
75747;BME280;70632;52.232;21.038;2023-08-08T22:00:01;99954.22;;;17.06;55.62
75747;BME280;70632;52.232;21.038;2023-08-08T22:02:27;99960.31;;;16.96;56.04
75747;BME280;70632;52.232;21.038;2023-08-08T22:04:53;99954.81;;;16.97;56.11
75747;BME280;70632;52.232;21.038;2023-08-08T22:07:19;99955.44;;;16.74;56.89
75747;BME280;70632;52.232;21.038;2023-08-08T22:09:44;99952.38;;;16.80;56.88
75747;BME280;70632;52.232;21.038;2023-08-08T22:12:10;99959.56;;;16.65;57.15
75747;BME280;70632;52.232;21.038;2023-08-08T22:14:36;99950.72;;;16.63;57.36
75747;BME280;70632;52.232;21.038;2023-08-08T22:17:02;99954.19;;;16.65;57.59
75747;BME280;70632;52.232;21.038;2023-08-08T22:19:27;99953.44;;;16.63;57.72
75747;BME280;70632;52.232;21.038;2023-08-08T22:21:53;99970.34;;;16.65;57.94
75747;BME280;70632;52.232;21.038;2023-08-08T22:24:19;99962.63;;;16.73;57.82
75747;BME280;70632;52.232;21.038;2023-08-08T22:26:46;99966.94;;;16.90;58.34
75747;BME280;70632;52.232;21.038;2023-08-08T22:29:12;99940.75;;;17.20;56.98
75747;BME280;70632;52.232;21.038;2023-08-08T22:31:38;99963.56;;;17.42;56.21
75747;BME280;70632;52.232;21.038;2023-08-08T22:34:03;99964.66;;;17.66;55.59
75747;BME280;70632;52.232;21.038;2023-08-08T22:36:29;99955.03;;;17.62;55.16
75747;BME280;70632;52.232;21.038;2023-08-08T22:38:55;99960.63;;;17.32;56.45
75747;BME280;70632;52.232;21.038;2023-08-08T22:41:21;99966.06;;;17.04;57.25
75747;BME280;70632;52.232;21.038;2023-08-08T22:43:46;99972.03;;;16.95;57.75
75747;BME280;70632;52.232;21.038;2023-08-08T22:46:12;99976.97;;;16.88;58.01
75747;BME280;70632;52.232;21.038;2023-08-08T22:48:38;99981.19;;;16.78;58.98
75747;BME280;70632;52.232;21.038;2023-08-08T22:51:04;99952.34;;;16.66;59.42
75747;BME280;70632;52.232;21.038;2023-08-08T22:53:29;99946.09;;;16.65;59.74
75747;BME280;70632;52.232;21.038;2023-08-08T22:55:55;99952.53;;;16.49;60.29
75747;BME280;70632;52.232;21.038;2023-08-08T22:58:21;99970.22;;;16.53;60.65
75747;BME280;70632;52.232;21.038;2023-08-08T23:00:46;99965.50;;;16.42;61.17
75747;BME280;70632;52.232;21.038;2023-08-08T23:03:12;99958.50;;;16.39;60.96
75747;BME280;70632;52.232;21.038;2023-08-08T23:05:38;99960.13;;;16.28;61.30
75747;BME280;70632;52.232;21.038;2023-08-08T23:08:04;99961.81;;;16.29;61.96
75747;BME280;70632;52.232;21.038;2023-08-08T23:10:30;99956.56;;;16.27;62.12
75747;BME280;70632;52.232;21.038;2023-08-08T23:12:56;99964.91;;;16.37;61.61
75747;BME280;70632;52.232;21.038;2023-08-08T23:15:21;99947.81;;;16.38;61.85
75747;BME280;70632;52.232;21.038;2023-08-08T23:17:47;99946.06;;;16.37;61.62
75747;BME280;70632;52.232;21.038;2023-08-08T23:20:13;99956.81;;;16.37;61.72
75747;BME280;70632;52.232;21.038;2023-08-08T23:22:38;99944.25;;;16.37;61.87
75747;BME280;70632;52.232;21.038;2023-08-08T23:25:05;99947.59;;;16.41;61.66
75747;BME280;70632;52.232;21.038;2023-08-08T23:27:31;99977.22;;;16.41;61.90
75747;BME280;70632;52.232;21.038;2023-08-08T23:29:57;99960.88;;;16.30;62.14
75747;BME280;70632;52.232;21.038;2023-08-08T23:32:22;99984.31;;;16.28;62.58
75747;BME280;70632;52.232;21.038;2023-08-08T23:34:48;99981.81;;;16.25;62.68
75747;BME280;70632;52.232;21.038;2023-08-08T23:37:14;99972.88;;;16.24;62.83
75747;BME280;70632;52.232;21.038;2023-08-08T23:39:40;99974.31;;;16.30;62.72
75747;BME280;70632;52.232;21.038;2023-08-08T23:42:05;99971.53;;;16.31;62.81
75747;BME280;70632;52.232;21.038;2023-08-08T23:44:31;99969.63;;;16.33;62.87
75747;BME280;70632;52.232;21.038;2023-08-08T23:46:56;99971.34;;;16.34;63.07
75747;BME280;70632;52.232;21.038;2023-08-08T23:49:22;99971.00;;;16.41;62.93
75747;BME280;70632;52.232;21.038;2023-08-08T23:51:48;99975.66;;;16.37;63.19
75747;BME280;70632;52.232;21.038;2023-08-08T23:54:14;99989.03;;;16.38;63.16
75747;BME280;70632;52.232;21.038;2023-08-08T23:56:40;99980.66;;;16.15;63.82
75747;BME280;70632;52.232;21.038;2023-08-08T23:59:07;99996.22;;;16.24;63.68
